sensor_id;sensor_type;location;lat;lon;timestamp;pressure;altitude;pressure_sealevel;temperature;humidity
36748;BME280;22716;51.556;5.080;2023-05-23T00:01:01;101249.97;;;14.84;100.00
36748;BME280;22716;51.556;5.080;2023-05-23T00:03:26;101227.09;;;14.85;100.00
36748;BME280;22716;51.556;5.080;2023-05-23T00:05:53;101238.53;;;14.85;100.00
36748;BME280;22716;51.556;5.080;2023-05-23T00:08:18;101232.28;;;14.89;100.00
36748;BME280;22716;51.556;5.080;2023-05-23T00:10:44;101223.41;;;14.93;100.00
36748;BME280;22716;51.556;5.080;2023-05-23T00:13:10;101226.59;;;15.06;100.00
36748;BME280;22716;51.556;5.080;2023-05-23T00:15:41;101232.06;;;15.00;100.00
36748;BME280;22716;51.556;5.080;2023-05-23T00:18:07;101228.81;;;14.87;100.00
36748;BME280;22716;51.556;5.080;2023-05-23T00:20:36;101249.84;;;14.90;100.00
36748;BME280;22716;51.556;5.080;2023-05-23T00:23:05;101223.84;;;14.72;100.00
36748;BME280;22716;51.556;5.080;2023-05-23T00:25:32;101248.94;;;14.91;100.00
36748;BME280;22716;51.556;5.080;2023-05-23T00:28:00;101244.47;;;14.95;100.00
36748;BME280;22716;51.556;5.080;2023-05-23T00:30:27;101244.44;;;14.96;100.00
36748;BME280;22716;51.556;5.080;2023-05-23T00:32:54;101261.09;;;14.98;100.00
36748;BME280;22716;51.556;5.080;2023-05-23T00:35:20;101259.53;;;14.90;100.00
36748;BME280;22716;51.556;5.080;2023-05-23T00:37:46;101256.38;;;14.73;100.00
36748;BME280;22716;51.556;5.080;2023-05-23T00:40:14;101268.75;;;14.69;100.00
36748;BME280;22716;51.556;5.080;2023-05-23T00:42:40;101264.44;;;14.65;100.00
36748;BME280;22716;51.556;5.080;2023-05-23T00:45:06;101265.28;;;14.67;100.00
36748;BME280;22716;51.556;5.080;2023-05-23T00:47:32;101264.63;;;14.56;100.00
36748;BME280;22716;51.556;5.080;2023-05-23T00:49:58;101274.22;;;14.60;100.00
36748;BME280;22716;51.556;5.080;2023-05-23T00:52:23;101265.78;;;14.43;100.00
36748;BME280;22716;51.556;5.080;2023-05-23T00:54:49;101273.97;;;14.26;100.00
36748;BME280;22716;51.556;5.080;2023-05-23T00:57:15;101280.91;;;14.30;100.00
36748;BME280;22716;51.556;5.080;2023-05-23T00:59:41;101286.28;;;14.24;100.00
36748;BME280;22716;51.556;5.080;2023-05-23T01:02:07;101263.78;;;14.08;100.00
36748;BME280;22716;51.556;5.080;2023-05-23T01:04:33;101277.00;;;14.03;100.00
36748;BME280;22716;51.556;5.080;2023-05-23T01:07:00;101281.56;;;13.95;100.00
36748;BME280;22716;51.556;5.080;2023-05-23T01:09:27;101259.84;;;13.81;100.00
36748;BME280;22716;51.556;5.080;2023-05-23T01:12:13;101281.59;;;13.94;100.00
36748;BME280;22716;51.556;5.080;2023-05-23T01:14:46;101259.81;;;13.83;100.00
36748;BME280;22716;51.556;5.080;2023-05-23T01:17:22;101285.94;;;13.96;100.00
36748;BME280;22716;51.556;5.080;2023-05-23T01:19:59;101281.50;;;13.98;100.00
36748;BME280;22716;51.556;5.080;2023-05-23T01:22:58;101271.00;;;13.97;100.00
36748;BME280;22716;51.556;5.080;2023-05-23T01:28:02;101285.94;;;13.95;100.00
36748;BME280;22716;51.556;5.080;2023-05-23T01:30:31;101291.88;;;14.06;100.00
36748;BME280;22716;51.556;5.080;2023-05-23T01:32:57;101289.41;;;14.00;100.00
36748;BME280;22716;51.556;5.080;2023-05-23T01:35:25;101279.69;;;14.00;100.00
36748;BME280;22716;51.556;5.080;2023-05-23T01:37:54;101292.19;;;13.91;100.00
36748;BME280;22716;51.556;5.080;2023-05-23T01:40:21;101285.22;;;13.87;100.00
36748;BME280;22716;51.556;5.080;2023-05-23T01:42:47;101292.09;;;13.97;100.00
36748;BME280;22716;51.556;5.080;2023-05-23T01:45:14;101293.00;;;13.93;100.00
36748;BME280;22716;51.556;5.080;2023-05-23T01:47:40;101293.78;;;13.98;100.00
36748;BME280;22716;51.556;5.080;2023-05-23T01:50:08;101292.09;;;13.95;100.00
36748;BME280;22716;51.556;5.080;2023-05-23T01:52:34;101293.88;;;13.93;100.00
36748;BME280;22716;51.556;5.080;2023-05-23T01:55:00;101295.59;;;13.94;100.00
36748;BME280;22716;51.556;5.080;2023-05-23T01:57:28;101277.16;;;13.96;100.00
36748;BME280;22716;51.556;5.080;2023-05-23T01:59:55;101266.88;;;13.82;100.00
36748;BME280;22716;51.556;5.080;2023-05-23T02:02:21;101288.56;;;13.96;100.00
36748;BME280;22716;51.556;5.080;2023-05-23T02:04:48;101296.38;;;14.01;100.00
36748;BME280;22716;51.556;5.080;2023-05-23T02:07:13;101292.88;;;14.02;100.00
36748;BME280;22716;51.556;5.080;2023-05-23T02:09:39;101290.34;;;13.94;100.00
36748;BME280;22716;51.556;5.080;2023-05-23T02:12:04;101308.88;;;13.90;100.00
36748;BME280;22716;51.556;5.080;2023-05-23T02:14:30;101300.09;;;13.91;100.00
36748;BME280;22716;51.556;5.080;2023-05-23T02:16:55;101307.06;;;13.93;100.00
36748;BME280;22716;51.556;5.080;2023-05-23T02:19:21;101284.50;;;13.77;100.00
36748;BME280;22716;51.556;5.080;2023-05-23T02:21:46;101310.53;;;13.95;100.00
36748;BME280;22716;51.556;5.080;2023-05-23T02:24:12;101303.69;;;13.85;100.00
36748;BME280;22716;51.556;5.080;2023-05-23T02:26:37;101319.25;;;13.97;100.00
36748;BME280;22716;51.556;5.080;2023-05-23T02:29:03;101317.41;;;14.06;100.00
36748;BME280;22716;51.556;5.080;2023-05-23T02:31:29;101321.00;;;14.00;100.00
36748;BME280;22716;51.556;5.080;2023-05-23T02:33:54;101326.19;;;14.04;100.00
36748;BME280;22716;51.556;5.080;2023-05-23T02:36:20;101320.88;;;14.06;100.00
36748;BME280;22716;51.556;5.080;2023-05-23T02:38:45;101318.31;;;14.03;100.00
36748;BME280;22716;51.556;5.080;2023-05-23T02:41:11;101315.75;;;13.98;100.00
36748;BME280;22716;51.556;5.080;2023-05-23T02:43:37;101319.22;;;14.00;100.00
36748;BME280;22716;51.556;5.080;2023-05-23T02:46:02;101316.53;;;14.05;100.00
36748;BME280;22716;51.556;5.080;2023-05-23T02:48:28;101321.03;;;13.98;100.00
36748;BME280;22716;51.556;5.080;2023-05-23T02:50:53;101319.22;;;14.02;100.00
36748;BME280;22716;51.556;5.080;2023-05-23T02:53:18;101319.13;;;14.07;100.00
36748;BME280;22716;51.556;5.080;2023-05-23T02:55:45;101314.94;;;13.95;100.00
36748;BME280;22716;51.556;5.080;2023-05-23T02:58:10;101318.38;;;14.00;100.00
36748;BME280;22716;51.556;5.080;2023-05-23T03:00:36;101292.13;;;13.94;100.00
36748;BME280;22716;51.556;5.080;2023-05-23T03:03:01;101308.47;;;14.13;100.00
36748;BME280;22716;51.556;5.080;2023-05-23T03:05:26;101297.97;;;14.10;100.00
36748;BME280;22716;51.556;5.080;2023-05-23T03:07:52;101311.78;;;14.24;100.00
36748;BME280;22716;51.556;5.080;2023-05-23T03:10:19;101323.13;;;14.27;100.00
36748;BME280;22716;51.556;5.080;2023-05-23T03:12:45;101323.13;;;14.29;100.00
36748;BME280;22716;51.556;5.080;2023-05-23T03:15:11;101326.56;;;14.34;100.00
36748;BME280;22716;51.556;5.080;2023-05-23T03:17:36;101324.75;;;14.37;100.00
36748;BME280;22716;51.556;5.080;2023-05-23T03:20:02;101323.97;;;14.31;100.00
36748;BME280;22716;51.556;5.080;2023-05-23T03:22:28;101328.41;;;14.29;100.00
36748;BME280;22716;51.556;5.080;2023-05-23T03:24:54;101306.50;;;14.24;100.00
36748;BME280;22716;51.556;5.080;2023-05-23T03:27:19;101320.50;;;14.29;100.00
36748;BME280;22716;51.556;5.080;2023-05-23T03:29:45;101328.41;;;14.27;100.00
36748;BME280;22716;51.556;5.080;2023-05-23T03:32:12;101329.38;;;14.23;100.00
36748;BME280;22716;51.556;5.080;2023-05-23T03:34:37;101322.47;;;14.18;100.00
36748;BME280;22716;51.556;5.080;2023-05-23T03:37:03;101329.44;;;14.19;100.00
36748;BME280;22716;51.556;5.080;2023-05-23T03:39:29;101336.44;;;14.21;100.00
36748;BME280;22716;51.556;5.080;2023-05-23T03:41:55;101333.72;;;14.26;100.00
36748;BME280;22716;51.556;5.080;2023-05-23T03:44:20;101337.13;;;14.34;100.00
36748;BME280;22716;51.556;5.080;2023-05-23T03:46:45;101322.31;;;14.24;100.00
36748;BME280;22716;51.556;5.080;2023-05-23T03:49:11;101337.94;;;14.36;100.00
36748;BME280;22716;51.556;5.080;2023-05-23T03:51:36;101338.88;;;14.35;100.00
36748;BME280;22716;51.556;5.080;2023-05-23T03:54:01;101325.03;;;14.21;100.00
36748;BME280;22716;51.556;5.080;2023-05-23T03:56:27;101338.22;;;14.21;100.00
36748;BME280;22716;51.556;5.080;2023-05-23T03:58:52;101341.53;;;14.32;100.00
36748;BME280;22716;51.556;5.080;2023-05-23T04:01:18;101330.13;;;14.30;100.00
36748;BME280;22716;51.556;5.080;2023-05-23T04:03:44;101337.13;;;14.31;100.00
36748;BME280;22716;51.556;5.080;2023-05-23T04:06:10;101347.63;;;14.37;100.00
36748;BME280;22716;51.556;5.080;2023-05-23T04:08:36;101360.75;;;14.38;100.00
36748;BME280;22716;51.556;5.080;2023-05-23T04:11:01;101358.28;;;14.29;100.00
36748;BME280;22716;51.556;5.080;2023-05-23T04:13:27;101355.69;;;14.26;100.00
36748;BME280;22716;51.556;5.080;2023-05-23T04:15:53;101355.63;;;14.29;100.00
36748;BME280;22716;51.556;5.080;2023-05-23T04:18:20;101362.66;;;14.29;100.00
36748;BME280;22716;51.556;5.080;2023-05-23T04:20:46;101362.84;;;14.18;100.00
36748;BME280;22716;51.556;5.080;2023-05-23T04:23:12;101363.84;;;14.10;100.00
36748;BME280;22716;51.556;5.080;2023-05-23T04:25:37;101354.19;;;14.12;100.00
36748;BME280;22716;51.556;5.080;2023-05-23T04:28:04;101368.34;;;14.04;100.00
36748;BME280;22716;51.556;5.080;2023-05-23T04:30:31;101362.25;;;14.02;100.00
36748;BME280;22716;51.556;5.080;2023-05-23T04:32:57;101370.19;;;13.99;100.00
36748;BME280;22716;51.556;5.080;2023-05-23T04:35:24;101376.34;;;13.98;100.00
36748;BME280;22716;51.556;5.080;2023-05-23T04:37:53;101370.25;;;13.95;100.00
36748;BME280;22716;51.556;5.080;2023-05-23T04:40:22;101381.84;;;13.83;100.00
36748;BME280;22716;51.556;5.080;2023-05-23T04:42:48;101384.56;;;13.77;100.00
36748;BME280;22716;51.556;5.080;2023-05-23T04:45:14;101381.94;;;13.79;100.00
36748;BME280;22716;51.556;5.080;2023-05-23T04:47:39;101395.88;;;13.84;100.00
36748;BME280;22716;51.556;5.080;2023-05-23T04:50:06;101391.59;;;13.78;100.00
36748;BME280;22716;51.556;5.080;2023-05-23T04:52:32;101383.78;;;13.72;100.00
36748;BME280;22716;51.556;5.080;2023-05-23T04:54:59;101382.81;;;13.79;100.00
36748;BME280;22716;51.556;5.080;2023-05-23T04:57:24;101403.03;;;13.74;100.00
36748;BME280;22716;51.556;5.080;2023-05-23T04:59:50;101403.84;;;13.82;100.00
36748;BME280;22716;51.556;5.080;2023-05-23T05:02:15;101396.84;;;13.78;100.00
36748;BME280;22716;51.556;5.080;2023-05-23T05:04:41;101388.94;;;13.78;100.00
36748;BME280;22716;51.556;5.080;2023-05-23T05:07:06;101403.66;;;13.91;100.00
36748;BME280;22716;51.556;5.080;2023-05-23T05:09:31;101406.41;;;13.85;100.00
36748;BME280;22716;51.556;5.080;2023-05-23T05:11:57;101405.72;;;13.71;100.00
36748;BME280;22716;51.556;5.080;2023-05-23T05:14:24;101417.22;;;13.67;100.00
36748;BME280;22716;51.556;5.080;2023-05-23T05:16:51;101412.75;;;13.72;100.00
36748;BME280;22716;51.556;5.080;2023-05-23T05:19:16;101393.69;;;13.55;100.00
36748;BME280;22716;51.556;5.080;2023-05-23T05:21:42;101411.81;;;13.75;100.00
36748;BME280;22716;51.556;5.080;2023-05-23T05:24:07;101414.53;;;13.70;100.00
36748;BME280;22716;51.556;5.080;2023-05-23T05:26:36;101437.28;;;13.74;100.00
36748;BME280;22716;51.556;5.080;2023-05-23T05:29:02;101426.75;;;13.74;100.00
36748;BME280;22716;51.556;5.080;2023-05-23T05:31:27;101438.25;;;13.70;100.00
36748;BME280;22716;51.556;5.080;2023-05-23T05:33:53;101425.19;;;13.61;100.00
36748;BME280;22716;51.556;5.080;2023-05-23T05:36:19;101444.47;;;13.63;100.00
36748;BME280;22716;51.556;5.080;2023-05-23T05:38:45;101438.47;;;13.51;100.00
36748;BME280;22716;51.556;5.080;2023-05-23T05:41:11;101448.31;;;13.38;100.00
36748;BME280;22716;51.556;5.080;2023-05-23T05:43:36;101451.88;;;13.34;100.00
36748;BME280;22716;51.556;5.080;2023-05-23T05:46:02;101453.66;;;13.32;100.00
36748;BME280;22716;51.556;5.080;2023-05-23T05:48:27;101451.69;;;13.47;100.00
36748;BME280;22716;51.556;5.080;2023-05-23T05:50:53;101450.03;;;13.39;100.00
36748;BME280;22716;51.556;5.080;2023-05-23T05:53:18;101437.13;;;13.19;100.00
36748;BME280;22716;51.556;5.080;2023-05-23T05:55:44;101460.69;;;13.30;100.00
36748;BME280;22716;51.556;5.080;2023-05-23T05:58:09;101453.81;;;13.17;100.00
36748;BME280;22716;51.556;5.080;2023-05-23T06:00:34;101469.63;;;13.15;100.00
36748;BME280;22716;51.556;5.080;2023-05-23T06:03:06;101473.03;;;13.25;100.00
36748;BME280;22716;51.556;5.080;2023-05-23T06:05:33;101480.00;;;13.29;100.00
36748;BME280;22716;51.556;5.080;2023-05-23T06:07:58;101477.41;;;13.24;100.00
36748;BME280;22716;51.556;5.080;2023-05-23T06:10:24;101479.06;;;13.34;100.00
36748;BME280;22716;51.556;5.080;2023-05-23T06:12:49;101479.97;;;13.32;100.00
36748;BME280;22716;51.556;5.080;2023-05-23T06:15:15;101492.25;;;13.30;100.00
36748;BME280;22716;51.556;5.080;2023-05-23T06:17:41;101487.97;;;13.23;100.00
36748;BME280;22716;51.556;5.080;2023-05-23T06:20:07;101488.06;;;13.12;100.00
36748;BME280;22716;51.556;5.080;2023-05-23T06:22:32;101467.88;;;13.13;100.00
36748;BME280;22716;51.556;5.080;2023-05-23T06:24:59;101490.56;;;13.26;100.00
36748;BME280;22716;51.556;5.080;2023-05-23T06:27:25;101485.38;;;13.20;100.00
36748;BME280;22716;51.556;5.080;2023-05-23T06:29:50;101494.06;;;13.26;100.00
36748;BME280;22716;51.556;5.080;2023-05-23T06:32:16;101494.97;;;13.22;100.00
36748;BME280;22716;51.556;5.080;2023-05-23T06:34:41;101503.72;;;13.26;100.00
36748;BME280;22716;51.556;5.080;2023-05-23T06:37:07;101493.19;;;13.24;100.00
36748;BME280;22716;51.556;5.080;2023-05-23T06:39:32;101499.44;;;13.17;100.00
36748;BME280;22716;51.556;5.080;2023-05-23T06:41:58;101479.31;;;13.12;100.00
36748;BME280;22716;51.556;5.080;2023-05-23T06:44:23;101496.75;;;13.22;100.00
36748;BME280;22716;51.556;5.080;2023-05-23T06:46:49;101499.28;;;13.31;100.00
36748;BME280;22716;51.556;5.080;2023-05-23T06:49:14;101502.66;;;13.43;100.00
36748;BME280;22716;51.556;5.080;2023-05-23T06:51:40;101520.03;;;13.57;100.00
36748;BME280;22716;51.556;5.080;2023-05-23T06:54:05;101513.72;;;13.68;100.00
36748;BME280;22716;51.556;5.080;2023-05-23T06:56:31;101509.25;;;13.75;100.00
36748;BME280;22716;51.556;5.080;2023-05-23T06:58:56;101495.22;;;13.74;100.00
36748;BME280;22716;51.556;5.080;2023-05-23T07:01:21;101516.78;;;14.03;100.00
36748;BME280;22716;51.556;5.080;2023-05-23T07:03:47;101533.28;;;14.18;100.00
36748;BME280;22716;51.556;5.080;2023-05-23T07:06:12;101523.47;;;14.27;100.00
36748;BME280;22716;51.556;5.080;2023-05-23T07:08:38;101534.16;;;14.17;100.00
36748;BME280;22716;51.556;5.080;2023-05-23T07:11:05;101522.00;;;14.07;100.00
36748;BME280;22716;51.556;5.080;2023-05-23T07:13:31;101540.53;;;14.02;100.00
36748;BME280;22716;51.556;5.080;2023-05-23T07:15:56;101544.16;;;13.93;100.00
36748;BME280;22716;51.556;5.080;2023-05-23T07:18:22;101538.09;;;13.87;100.00
36748;BME280;22716;51.556;5.080;2023-05-23T07:20:48;101547.75;;;13.88;100.00
36748;BME280;22716;51.556;5.080;2023-05-23T07:23:14;101537.34;;;13.74;100.00
36748;BME280;22716;51.556;5.080;2023-05-23T07:25:39;101546.09;;;13.79;100.00
36748;BME280;22716;51.556;5.080;2023-05-23T07:28:07;101536.59;;;13.68;100.00
36748;BME280;22716;51.556;5.080;2023-05-23T07:30:32;101555.03;;;13.66;100.00
36748;BME280;22716;51.556;5.080;2023-05-23T07:32:58;101560.06;;;13.84;100.00
36748;BME280;22716;51.556;5.080;2023-05-23T07:35:23;101560.84;;;13.92;100.00
36748;BME280;22716;51.556;5.080;2023-05-23T07:37:53;101554.66;;;13.96;100.00
36748;BME280;22716;51.556;5.080;2023-05-23T07:40:22;101552.09;;;13.90;100.00
36748;BME280;22716;51.556;5.080;2023-05-23T07:42:48;101552.97;;;13.89;100.00
36748;BME280;22716;51.556;5.080;2023-05-23T07:45:13;101566.28;;;13.79;100.00
36748;BME280;22716;51.556;5.080;2023-05-23T07:47:40;101576.75;;;13.85;100.00
36748;BME280;22716;51.556;5.080;2023-05-23T07:50:06;101574.16;;;13.82;100.00
36748;BME280;22716;51.556;5.080;2023-05-23T07:52:31;101573.97;;;13.95;100.00
36748;BME280;22716;51.556;5.080;2023-05-23T07:54:58;101582.72;;;13.99;100.00
36748;BME280;22716;51.556;5.080;2023-05-23T07:57:24;101579.22;;;13.98;100.00
36748;BME280;22716;51.556;5.080;2023-05-23T07:59:50;101580.88;;;14.04;100.00
36748;BME280;22716;51.556;5.080;2023-05-23T08:02:16;101565.13;;;14.02;100.00
36748;BME280;22716;51.556;5.080;2023-05-23T08:04:42;101585.19;;;14.11;100.00
36748;BME280;22716;51.556;5.080;2023-05-23T08:07:07;101584.19;;;14.20;100.00
36748;BME280;22716;51.556;5.080;2023-05-23T08:09:34;101587.63;;;14.25;100.00
36748;BME280;22716;51.556;5.080;2023-05-23T08:12:00;101589.34;;;14.29;100.00
36748;BME280;22716;51.556;5.080;2023-05-23T08:14:26;101592.78;;;14.37;100.00
36748;BME280;22716;51.556;5.080;2023-05-23T08:16:51;101593.63;;;14.39;100.00
36748;BME280;22716;51.556;5.080;2023-05-23T08:19:17;101591.06;;;14.30;100.00
36748;BME280;22716;51.556;5.080;2023-05-23T08:21:42;101585.00;;;14.26;100.00
36748;BME280;22716;51.556;5.080;2023-05-23T08:24:08;101586.84;;;14.18;100.00
36748;BME280;22716;51.556;5.080;2023-05-23T08:26:33;101596.50;;;14.21;100.00
36748;BME280;22716;51.556;5.080;2023-05-23T08:29:01;101583.19;;;14.27;100.00
36748;BME280;22716;51.556;5.080;2023-05-23T08:31:27;101571.94;;;14.16;100.00
36748;BME280;22716;51.556;5.080;2023-05-23T08:33:53;101584.03;;;14.32;100.00
36748;BME280;22716;51.556;5.080;2023-05-23T08:36:18;101585.66;;;14.42;100.00
36748;BME280;22716;51.556;5.080;2023-05-23T08:38:44;101583.84;;;14.47;100.00
36748;BME280;22716;51.556;5.080;2023-05-23T08:41:17;101587.50;;;14.37;100.00
36748;BME280;22716;51.556;5.080;2023-05-23T08:43:43;101587.59;;;14.28;100.00
36748;BME280;22716;51.556;5.080;2023-05-23T08:46:08;101597.16;;;14.38;100.00
36748;BME280;22716;51.556;5.080;2023-05-23T08:48:37;101580.56;;;14.27;100.00
36748;BME280;22716;51.556;5.080;2023-05-23T08:51:03;101589.25;;;14.38;100.00
36748;BME280;22716;51.556;5.080;2023-05-23T08:58:45;101603.34;;;14.92;100.00
36748;BME280;22716;51.556;5.080;2023-05-23T09:01:13;101607.88;;;14.84;100.00
36748;BME280;22716;51.556;5.080;2023-05-23T09:03:39;101598.31;;;14.77;100.00
36748;BME280;22716;51.556;5.080;2023-05-23T09:06:07;101606.28;;;14.75;100.00
36748;BME280;22716;51.556;5.080;2023-05-23T09:08:34;101605.53;;;14.67;100.00
36748;BME280;22716;51.556;5.080;2023-05-23T09:11:04;101606.44;;;14.63;100.00
36748;BME280;22716;51.556;5.080;2023-05-23T09:13:32;101611.97;;;14.45;100.00
36748;BME280;22716;51.556;5.080;2023-05-23T09:18:41;101612.91;;;14.42;100.00
36748;BME280;22716;51.556;5.080;2023-05-23T09:21:08;101607.59;;;14.47;100.00
36748;BME280;22716;51.556;5.080;2023-05-23T09:23:36;101608.22;;;14.64;100.00
36748;BME280;22716;51.556;5.080;2023-05-23T09:26:05;101614.69;;;15.00;100.00
36748;BME280;22716;51.556;5.080;2023-05-23T09:28:36;101594.06;;;15.22;100.00
36748;BME280;22716;51.556;5.080;2023-05-23T09:31:04;101609.69;;;15.34;97.77
36748;BME280;22716;51.556;5.080;2023-05-23T09:33:45;101609.59;;;15.38;97.26
36748;BME280;22716;51.556;5.080;2023-05-23T09:36:12;101630.25;;;15.65;97.32
36748;BME280;22716;51.556;5.080;2023-05-23T09:38:39;101621.88;;;15.88;96.06
36748;BME280;22716;51.556;5.080;2023-05-23T09:41:06;101625.50;;;15.84;95.40
36748;BME280;22716;51.556;5.080;2023-05-23T09:43:32;101621.44;;;16.09;94.43
36748;BME280;22716;51.556;5.080;2023-05-23T09:46:10;101615.81;;;16.26;93.30
36748;BME280;22716;51.556;5.080;2023-05-23T09:48:37;101621.16;;;16.23;91.76
36748;BME280;22716;51.556;5.080;2023-05-23T09:51:09;101619.09;;;16.36;91.10
36748;BME280;22716;51.556;5.080;2023-05-23T09:53:35;101621.84;;;16.71;90.33
36748;BME280;22716;51.556;5.080;2023-05-23T09:56:02;101624.97;;;16.88;88.03
36748;BME280;22716;51.556;5.080;2023-05-23T09:58:29;101615.84;;;16.64;87.60
36748;BME280;22716;51.556;5.080;2023-05-23T10:00:56;101617.94;;;16.49;87.34
36748;BME280;22716;51.556;5.080;2023-05-23T10:03:48;101625.72;;;16.58;87.80
36748;BME280;22716;51.556;5.080;2023-05-23T10:06:26;101628.00;;;16.73;87.51
36748;BME280;22716;51.556;5.080;2023-05-23T10:08:56;101631.63;;;16.69;87.00
36748;BME280;22716;51.556;5.080;2023-05-23T10:14:01;101634.25;;;17.06;85.34
36748;BME280;22716;51.556;5.080;2023-05-23T10:19:27;101625.84;;;16.89;83.42
36748;BME280;22716;51.556;5.080;2023-05-23T10:22:02;101628.69;;;16.81;83.09
36748;BME280;22716;51.556;5.080;2023-05-23T10:24:29;101622.31;;;16.88;83.21
36748;BME280;22716;51.556;5.080;2023-05-23T10:26:55;101631.81;;;16.98;81.95
36748;BME280;22716;51.556;5.080;2023-05-23T10:29:23;101637.03;;;17.00;80.66
36748;BME280;22716;51.556;5.080;2023-05-23T10:31:49;101640.25;;;17.14;79.43
36748;BME280;22716;51.556;5.080;2023-05-23T10:37:10;101639.22;;;17.19;78.57
36748;BME280;22716;51.556;5.080;2023-05-23T10:45:41;101633.94;;;17.19;77.04
36748;BME280;22716;51.556;5.080;2023-05-23T10:48:32;101630.63;;;17.10;77.21
36748;BME280;22716;51.556;5.080;2023-05-23T10:51:10;101636.97;;;17.03;76.76
36748;BME280;22716;51.556;5.080;2023-05-23T10:53:41;101631.81;;;16.98;76.29
36748;BME280;22716;51.556;5.080;2023-05-23T10:56:08;101631.81;;;16.98;76.97
36748;BME280;22716;51.556;5.080;2023-05-23T10:58:35;101640.41;;;17.06;76.94
36748;BME280;22716;51.556;5.080;2023-05-23T11:01:05;101637.53;;;17.15;76.11
36748;BME280;22716;51.556;5.080;2023-05-23T11:06:43;101640.13;;;17.18;74.89
36748;BME280;22716;51.556;5.080;2023-05-23T11:09:11;101620.47;;;17.27;74.66
36748;BME280;22716;51.556;5.080;2023-05-23T11:12:04;101624.53;;;17.74;73.60
36748;BME280;22716;51.556;5.080;2023-05-23T11:19:55;101627.25;;;17.72;72.94
36748;BME280;22716;51.556;5.080;2023-05-23T11:22:26;101625.81;;;17.59;72.30
36748;BME280;22716;51.556;5.080;2023-05-23T11:24:53;101629.06;;;17.70;72.54
36748;BME280;22716;51.556;5.080;2023-05-23T11:30:07;101629.41;;;17.89;70.69
36748;BME280;22716;51.556;5.080;2023-05-23T11:32:34;101631.91;;;17.95;70.23
36748;BME280;22716;51.556;5.080;2023-05-23T11:35:10;101626.34;;;18.04;69.44
36748;BME280;22716;51.556;5.080;2023-05-23T11:37:39;101638.97;;;17.95;67.35
36748;BME280;22716;51.556;5.080;2023-05-23T11:40:28;101642.66;;;17.90;67.98
36748;BME280;22716;51.556;5.080;2023-05-23T11:42:54;101639.34;;;18.13;67.27
36748;BME280;22716;51.556;5.080;2023-05-23T11:45:24;101636.53;;;18.18;66.01
36748;BME280;22716;51.556;5.080;2023-05-23T11:47:51;101637.84;;;18.34;65.12
36748;BME280;22716;51.556;5.080;2023-05-23T11:50:16;101641.84;;;18.49;64.56
36748;BME280;22716;51.556;5.080;2023-05-23T11:52:44;101632.19;;;18.44;62.73
36748;BME280;22716;51.556;5.080;2023-05-23T11:55:17;101633.88;;;18.49;62.88
36748;BME280;22716;51.556;5.080;2023-05-23T11:57:43;101635.63;;;18.48;63.61
36748;BME280;22716;51.556;5.080;2023-05-23T12:00:09;101641.22;;;18.39;64.27
36748;BME280;22716;51.556;5.080;2023-05-23T12:02:40;101641.84;;;18.49;64.70
36748;BME280;22716;51.556;5.080;2023-05-23T12:05:08;101643.53;;;18.20;65.82
36748;BME280;22716;51.556;5.080;2023-05-23T12:07:34;101632.53;;;18.03;66.19
36748;BME280;22716;51.556;5.080;2023-05-23T12:10:03;101650.81;;;18.14;65.38
36748;BME280;22716;51.556;5.080;2023-05-23T12:12:30;101651.75;;;18.11;64.60
36748;BME280;22716;51.556;5.080;2023-05-23T12:14:56;101635.25;;;18.02;63.70
36748;BME280;22716;51.556;5.080;2023-05-23T12:17:23;101647.56;;;18.03;63.52
36748;BME280;22716;51.556;5.080;2023-05-23T12:19:48;101641.72;;;17.91;62.76
36748;BME280;22716;51.556;5.080;2023-05-23T12:22:21;101641.94;;;17.84;63.31
36748;BME280;22716;51.556;5.080;2023-05-23T12:24:48;101639.16;;;17.88;63.18
36748;BME280;22716;51.556;5.080;2023-05-23T12:27:15;101652.84;;;18.04;62.54
36748;BME280;22716;51.556;5.080;2023-05-23T12:29:49;101647.06;;;18.21;61.59
36748;BME280;22716;51.556;5.080;2023-05-23T12:32:18;101648.44;;;18.34;61.00
36748;BME280;22716;51.556;5.080;2023-05-23T12:34:44;101662.28;;;18.43;60.78
36748;BME280;22716;51.556;5.080;2023-05-23T12:37:12;101656.25;;;18.38;60.86
36748;BME280;22716;51.556;5.080;2023-05-23T12:39:42;101657.78;;;18.49;59.85
36748;BME280;22716;51.556;5.080;2023-05-23T12:42:08;101659.09;;;18.63;59.57
36748;BME280;22716;51.556;5.080;2023-05-23T12:44:35;101664.44;;;18.62;59.86
36748;BME280;22716;51.556;5.080;2023-05-23T12:47:02;101659.63;;;18.43;60.67
36748;BME280;22716;51.556;5.080;2023-05-23T12:49:28;101665.81;;;18.44;60.98
36748;BME280;22716;51.556;5.080;2023-05-23T12:51:53;101653.06;;;18.27;61.19
36748;BME280;22716;51.556;5.080;2023-05-23T12:54:19;101671.28;;;18.39;61.14
36748;BME280;22716;51.556;5.080;2023-05-23T12:56:45;101666.19;;;18.32;61.31
36748;BME280;22716;51.556;5.080;2023-05-23T12:59:11;101650.41;;;18.27;61.37
36748;BME280;22716;51.556;5.080;2023-05-23T13:01:36;101665.25;;;18.34;61.14
36748;BME280;22716;51.556;5.080;2023-05-23T13:04:03;101667.31;;;18.23;60.91
36748;BME280;22716;51.556;5.080;2023-05-23T13:06:28;101660.66;;;18.39;60.25
36748;BME280;22716;51.556;5.080;2023-05-23T13:08:54;101665.06;;;18.40;60.17
36748;BME280;22716;51.556;5.080;2023-05-23T13:11:20;101658.47;;;18.55;59.40
36748;BME280;22716;51.556;5.080;2023-05-23T13:13:47;101661.19;;;18.81;58.45
36748;BME280;22716;51.556;5.080;2023-05-23T13:16:14;101652.06;;;18.90;57.52
36748;BME280;22716;51.556;5.080;2023-05-23T13:18:40;101651.00;;;19.22;55.94